Santa Teresa, NM

11:19 PM MDT on September 04, 2015 (GMT -0600)
Carvel acres | | Change Station
CLOSE
Current Station
Personal Weather Station
Location: El Paso, TX
Elevation: 3743 ft
Nearby Weather Stations

Elev 3743 ft 31.85 °N, 106.62 °W | Updated 14 minutes ago

Overcast
Overcast
77.5 °F
Feels Like 79 °F
N
0.0
Wind Variable Wind from NNW

Today
High -- | Low -- °F
--% Chance of Precip.
Yesterday
High -- | Low -- °F
Precip. -- in
6:43 AM 7:26 PM
Waning Gibbous, 52% visible
Pressure 29.82 in
Visibility 10.0 miles
Clouds Scattered Clouds 11000 ft
Mostly Cloudy 16000 ft
Heat Index 79 °F
Dew Point 58 °F
Humidity 51%
Rainfall 0.00 in
Snow Depth Not available.
UV 0 out of 12
Pollen 9.30 out of 12
Air Quality Not available.
Flu Activity Not available.
METAR KBIF 050458Z 32011KT 10SM SCT110 BKN160 26/12 A3002 RMK AO2A SLP096 T02640116 $
Pressure 29.82 in
Visibility 10.0 miles
Clouds Scattered Clouds 11000 ft
Mostly Cloudy 16000 ft
Heat Index 79 °F
Dew Point 58 °F
Humidity 51%
Rainfall 0.00 in
Snow Depth Not available.
UV 0 out of 12
Pollen 9.30 out of 12
Air Quality Not available.
Flu Activity Not available.
METAR KBIF 050458Z 32011KT 10SM SCT110 BKN160 26/12 A3002 RMK AO2A SLP096 T02640116 $

10-Day Weather Forecast

×

Almanac

Astronomy

Sep. 04, 2015 Rise Set
Actual Time
Civil Twilight
Nautical Twilight
Astronomical Twilight
Moon
Length of Visible Light
Length of Day
Tomorrow will be .
, % of the Moon is Illuminated

Today's Extremes

State Highs State Lows

Community

WunderPhotos

Upload Photos

1,852,426 photos uploaded!

WunderBlogs® & News

Nearby

Air Quality

  Air Quality AQ Index Pollutant
Not available.

Snow Depth

Station Depth Elevation

Earthquake Activity

City Distance Mag. Time & Date
Minimum magnitude displayed is 2.5.

Coastal Water Temperatures

Place Temperature

Stations

Nearby Weather Stations

Station Location Temp. Windchill Dew Point Humidity Wind Precip. Elev Updated Type